createdAt,value
2022-08-02T00:00:09.894Z,11.27
2022-08-02T00:02:36.729Z,11.17
2022-08-02T00:05:03.986Z,11.04
2022-08-02T00:07:30.712Z,10.94
2022-08-02T00:09:57.368Z,10.87
2022-08-02T00:12:24.600Z,10.80
2022-08-02T00:14:51.617Z,10.73
2022-08-02T00:17:18.336Z,10.60
2022-08-02T00:19:45.511Z,10.53
2022-08-02T00:22:14.907Z,10.46
2022-08-02T00:24:41.896Z,10.39
2022-08-02T00:27:09.341Z,10.36
2022-08-02T00:29:50.368Z,10.28
2022-08-02T00:32:20.441Z,9.75
2022-08-02T00:34:47.267Z,9.73
2022-08-02T00:37:14.250Z,9.72
2022-08-02T00:39:42.725Z,9.69
2022-08-02T00:42:10.347Z,9.71
2022-08-02T00:44:37.552Z,9.85
2022-08-02T00:47:04.288Z,9.98
2022-08-02T00:49:33.084Z,10.04
2022-08-02T00:52:00.395Z,10.13
2022-08-02T00:54:27.320Z,10.20
2022-08-02T00:56:53.956Z,10.22
2022-08-02T00:59:20.590Z,10.21
2022-08-02T01:01:57.440Z,10.19
2022-08-02T01:04:31.207Z,10.14
2022-08-02T01:07:00.644Z,9.47
2022-08-02T01:09:28.214Z,9.32
2022-08-02T01:11:54.844Z,9.51
2022-08-02T01:14:24.638Z,9.65
2022-08-02T01:17:06.850Z,9.30
2022-08-02T01:20:13.461Z,9.37
2022-08-02T01:23:01.079Z,9.41
2022-08-02T01:25:40.058Z,9.28
2022-08-02T01:28:33.724Z,8.83
2022-08-02T01:31:14.266Z,8.89
2022-08-02T01:34:10.472Z,8.94
2022-08-02T01:36:41.661Z,8.83
2022-08-02T01:39:12.463Z,8.91
2022-08-02T01:41:58.874Z,8.87
2022-08-02T01:44:28.899Z,8.63
2022-08-02T01:47:01.163Z,8.83
2022-08-02T01:49:31.200Z,8.85
2022-08-02T01:52:19.712Z,8.81
2022-08-02T01:54:49.643Z,8.98
2022-08-02T01:57:17.383Z,8.97
2022-08-02T01:59:46.927Z,8.91
2022-08-02T02:02:16.656Z,9.05
2022-08-02T02:04:47.040Z,8.98
2022-08-02T02:07:17.180Z,9.00
2022-08-02T02:09:50.533Z,9.16
2022-08-02T02:12:20.031Z,9.03
2022-08-02T02:14:49.175Z,9.02
2022-08-02T02:17:57.133Z,9.13
2022-08-02T02:20:12.101Z,8.98
2022-08-02T02:22:38.884Z,9.08
2022-08-02T02:25:06.615Z,9.10
2022-08-02T02:27:37.109Z,8.49
2022-08-02T02:30:05.551Z,8.48
2022-08-02T02:32:33.967Z,8.45
2022-08-02T02:35:03.025Z,8.40
2022-08-02T02:37:32.506Z,8.47
2022-08-02T02:39:59.940Z,7.92
2022-08-02T02:42:32.178Z,7.99
2022-08-02T02:45:00.916Z,7.89
2022-08-02T02:47:41.299Z,7.96
2022-08-02T02:50:11.611Z,8.02
2022-08-02T02:52:40.541Z,7.83
2022-08-02T02:55:08.737Z,8.06
2022-08-02T02:57:37.687Z,8.19
2022-08-02T03:00:08.823Z,8.22
2022-08-02T03:02:38.192Z,8.38
2022-08-02T03:05:09.338Z,8.28
2022-08-02T03:07:36.316Z,8.43
2022-08-02T03:10:05.464Z,8.53
2022-08-02T03:12:33.660Z,8.52
2022-08-02T03:15:04.271Z,8.66
2022-08-02T03:17:42.034Z,8.52
2022-08-02T03:20:15.494Z,8.54
2022-08-02T03:22:43.010Z,8.47
2022-08-02T03:25:11.082Z,8.52
2022-08-02T03:27:37.789Z,8.66
2022-08-02T03:30:07.904Z,8.62
2022-08-02T03:32:37.129Z,8.78
2022-08-02T03:35:06.858Z,8.78
2022-08-02T03:37:35.822Z,8.79
2022-08-02T03:40:03.946Z,8.93
2022-08-02T03:42:31.608Z,8.78
2022-08-02T03:45:02.640Z,8.90
2022-08-02T03:47:33.433Z,8.94
2022-08-02T03:50:02.599Z,8.94
2022-08-02T03:52:31.653Z,9.05
2022-08-02T03:54:58.328Z,8.98
2022-08-02T03:57:24.989Z,9.11
2022-08-02T03:59:51.707Z,9.02
2022-08-02T04:02:18.421Z,9.04
2022-08-02T04:04:45.045Z,9.11
2022-08-02T04:07:11.691Z,9.09
2022-08-02T04:09:38.344Z,9.26
2022-08-02T04:12:05.404Z,9.24
2022-08-02T04:14:35.622Z,9.32
2022-08-02T04:17:08.353Z,9.47
2022-08-02T04:19:39.552Z,9.54
2022-08-02T04:22:14.544Z,9.74
2022-08-02T04:24:47.402Z,9.74
2022-08-02T04:27:50.642Z,9.90
2022-08-02T04:30:07.884Z,10.12
2022-08-02T04:32:35.903Z,10.25
2022-08-02T04:35:19.601Z,10.39
2022-08-02T04:38:09.648Z,10.49
2022-08-02T04:40:33.720Z,10.58
2022-08-02T04:43:00.405Z,10.67
2022-08-02T04:45:27.218Z,10.71
2022-08-02T04:48:02.391Z,10.46
2022-08-02T04:50:30.802Z,10.54
2022-08-02T04:52:58.626Z,10.66
2022-08-02T04:55:28.809Z,10.75
2022-08-02T04:57:57.602Z,10.62
2022-08-02T05:00:25.464Z,10.45
2022-08-02T05:02:52.700Z,10.58
2022-08-02T05:05:19.557Z,10.69
2022-08-02T05:07:46.340Z,10.73
2022-08-02T05:10:13.313Z,10.41
2022-08-02T05:12:42.639Z,10.52
2022-08-02T05:15:14.036Z,10.41
2022-08-02T05:17:48.300Z,10.43
2022-08-02T05:20:21.040Z,10.61
2022-08-02T05:22:47.839Z,10.73
2022-08-02T05:25:17.689Z,10.66
2022-08-02T05:27:46.482Z,10.59
2022-08-02T05:30:13.123Z,10.70
2022-08-02T05:32:52.702Z,10.80
2022-08-02T05:35:21.808Z,10.65
2022-08-02T05:37:49.905Z,10.57
2022-08-02T05:40:17.166Z,10.73
2022-08-02T05:42:52.211Z,10.78
2022-08-02T05:45:18.807Z,10.54
2022-08-02T05:47:45.484Z,10.68
2022-08-02T05:50:12.776Z,10.84
2022-08-02T05:52:52.737Z,10.85
2022-08-02T05:55:40.476Z,10.70
2022-08-02T05:58:36.208Z,11.00
2022-08-02T06:01:03.961Z,11.06
2022-08-02T06:03:48.053Z,10.87
2022-08-02T06:06:17.958Z,11.09
2022-08-02T06:08:48.033Z,11.24
2022-08-02T06:11:22.392Z,11.01
2022-08-02T06:13:49.488Z,11.03
2022-08-02T06:16:16.459Z,11.23
2022-08-02T06:18:45.611Z,11.27
2022-08-02T06:22:29.861Z,11.16
2022-08-02T06:24:02.703Z,11.41
2022-08-02T06:26:29.603Z,11.59
2022-08-02T06:28:58.296Z,11.65
2022-08-02T06:31:25.441Z,11.56
2022-08-02T06:33:52.271Z,11.74
2022-08-02T06:37:02.413Z,11.87
2022-08-02T06:39:35.140Z,11.76
2022-08-02T06:42:11.418Z,11.85
2022-08-02T06:44:49.512Z,12.07
2022-08-02T06:47:17.940Z,12.27
2022-08-02T06:49:52.302Z,12.19
2022-08-02T06:52:30.342Z,12.09
2022-08-02T06:54:59.017Z,12.31
2022-08-02T06:57:25.998Z,12.45
2022-08-02T06:59:52.693Z,12.58
2022-08-02T07:02:19.495Z,12.41
2022-08-02T07:04:46.195Z,12.62
2022-08-02T07:07:12.986Z,12.87
2022-08-02T07:09:39.664Z,13.02
2022-08-02T07:12:22.776Z,12.85
2022-08-02T07:14:49.440Z,12.88
2022-08-02T07:17:16.234Z,13.13
2022-08-02T07:19:43.207Z,13.28
2022-08-02T07:22:09.904Z,13.40
2022-08-02T07:24:36.622Z,13.54
2022-08-02T07:27:12.363Z,13.37
2022-08-02T07:29:46.071Z,13.55
2022-08-02T07:32:18.589Z,13.69
2022-08-02T07:34:46.302Z,13.83
2022-08-02T07:37:36.097Z,13.94
2022-08-02T07:40:11.923Z,13.80
2022-08-02T07:42:41.389Z,13.70
2022-08-02T07:45:08.334Z,13.90
2022-08-02T07:47:42.712Z,13.98
2022-08-02T07:50:12.159Z,14.09
2022-08-02T07:52:40.339Z,14.18
2022-08-02T07:55:08.087Z,14.24
2022-08-02T07:57:34.719Z,14.06
2022-08-02T08:00:01.501Z,14.14
2022-08-02T08:02:29.112Z,14.29
2022-08-02T08:04:55.816Z,14.39
2022-08-02T08:07:23.300Z,14.49
2022-08-02T08:09:56.312Z,14.54
2022-08-02T08:12:23.975Z,14.62
2022-08-02T08:14:50.672Z,14.70
2022-08-02T08:17:17.460Z,14.84
2022-08-02T08:19:51.641Z,14.97
2022-08-02T08:22:20.057Z,15.09
2022-08-02T08:24:50.753Z,15.08
2022-08-02T08:27:18.565Z,15.08
2022-08-02T08:29:46.175Z,15.21
2022-08-02T08:32:17.532Z,15.30
2022-08-02T08:34:45.963Z,15.32
2022-08-02T08:37:18.248Z,15.32
2022-08-02T08:39:58.147Z,15.42
2022-08-02T08:42:30.968Z,15.46
2022-08-02T08:44:58.783Z,15.53
2022-08-02T08:47:34.735Z,15.59
2022-08-02T08:50:18.943Z,15.66
2022-08-02T08:53:04.243Z,15.76
2022-08-02T08:55:32.013Z,15.87
2022-08-02T08:58:00.692Z,15.89
2022-08-02T09:00:29.706Z,15.89
2022-08-02T09:02:57.103Z,15.96
2022-08-02T09:05:25.262Z,15.93
2022-08-02T09:07:53.268Z,15.93
2022-08-02T09:10:39.573Z,15.96
2022-08-02T09:13:38.867Z,15.89
2022-08-02T09:16:12.121Z,15.89
2022-08-02T09:18:45.329Z,15.99
2022-08-02T09:21:13.845Z,16.12
2022-08-02T09:23:42.800Z,16.18
2022-08-02T09:26:15.312Z,16.22
2022-08-02T09:28:44.934Z,16.19
2022-08-02T09:31:12.889Z,16.17
2022-08-02T09:33:41.552Z,16.29
2022-08-02T09:36:08.878Z,16.38
2022-08-02T09:38:37.252Z,16.43
2022-08-02T09:41:06.127Z,16.54
2022-08-02T09:44:03.790Z,16.57
2022-08-02T09:46:32.356Z,16.68
2022-08-02T09:49:03.506Z,16.70
2022-08-02T09:51:37.188Z,16.74
2022-08-02T09:54:08.714Z,16.83
2022-08-02T09:56:50.679Z,16.76
2022-08-02T09:59:19.252Z,16.86
2022-08-02T10:01:50.799Z,16.84
2022-08-02T10:04:25.013Z,16.92
2022-08-02T10:06:54.210Z,17.05
2022-08-02T10:09:22.285Z,17.16
2022-08-02T10:11:49.649Z,17.19
2022-08-02T10:14:17.820Z,17.21
2022-08-02T10:16:44.592Z,17.18
2022-08-02T10:19:11.439Z,17.20
2022-08-02T10:21:52.085Z,17.25
2022-08-02T10:24:22.493Z,17.25
2022-08-02T10:26:49.896Z,17.33
2022-08-02T10:29:20.377Z,17.33
2022-08-02T10:32:04.923Z,17.31
2022-08-02T10:35:19.547Z,17.23
2022-08-02T10:37:54.734Z,17.25
2022-08-02T10:40:26.256Z,17.26
2022-08-02T10:42:54.556Z,17.26
2022-08-02T10:45:22.826Z,17.20
2022-08-02T10:48:12.403Z,17.23
2022-08-02T10:50:49.716Z,17.35
2022-08-02T10:53:20.705Z,17.42
2022-08-02T10:55:47.490Z,17.40
2022-08-02T10:58:25.853Z,17.32
2022-08-02T11:00:54.040Z,17.26
2022-08-02T11:03:29.792Z,17.06
2022-08-02T11:06:06.630Z,16.99
2022-08-02T11:08:33.708Z,16.93
2022-08-02T11:11:53.476Z,17.02
2022-08-02T11:14:14.239Z,17.11
2022-08-02T11:16:55.790Z,17.19
2022-08-02T11:19:23.651Z,17.20
2022-08-02T11:22:04.238Z,17.21
2022-08-02T11:24:33.144Z,17.28
2022-08-02T11:27:02.435Z,17.36
2022-08-02T11:29:38.642Z,17.30
2022-08-02T11:32:07.392Z,17.39
2022-08-02T11:34:37.621Z,17.50
2022-08-02T11:37:05.133Z,17.63
2022-08-02T11:39:31.828Z,17.72
2022-08-02T11:42:00.620Z,17.85
2022-08-02T11:44:29.360Z,17.85
2022-08-02T11:47:01.660Z,17.87
2022-08-02T11:49:29.749Z,17.95
2022-08-02T11:52:08.081Z,17.95
2022-08-02T11:54:39.480Z,18.00
2022-08-02T11:57:24.153Z,18.12
2022-08-02T11:59:55.805Z,18.07
2022-08-02T12:02:26.857Z,18.13
2022-08-02T12:04:58.967Z,18.23
2022-08-02T12:07:34.541Z,18.35
2022-08-02T12:10:05.812Z,18.43
2022-08-02T12:12:32.783Z,18.55
2022-08-02T12:14:59.442Z,18.63
2022-08-02T12:17:47.634Z,18.78
2022-08-02T12:20:14.509Z,18.68
2022-08-02T12:22:42.118Z,18.84
2022-08-02T12:25:33.679Z,18.94
2022-08-02T12:28:25.457Z,18.91
2022-08-02T12:31:00.253Z,19.02
2022-08-02T12:33:36.507Z,19.10
2022-08-02T12:36:24.476Z,19.16
2022-08-02T12:38:59.531Z,19.12
2022-08-02T12:41:31.245Z,19.21
2022-08-02T12:44:00.338Z,19.17
2022-08-02T12:46:27.394Z,19.19
2022-08-02T12:49:16.599Z,19.25
2022-08-02T12:51:56.417Z,19.27
2022-08-02T12:54:31.343Z,19.24
2022-08-02T12:57:13.919Z,19.19
2022-08-02T12:59:42.953Z,19.28
2022-08-02T13:02:12.787Z,19.20
2022-08-02T13:04:40.218Z,19.21
2022-08-02T13:07:08.403Z,19.27
2022-08-02T13:09:45.598Z,19.24
2022-08-02T13:12:13.015Z,19.21
2022-08-02T13:14:42.315Z,19.27
2022-08-02T13:17:10.195Z,19.29
2022-08-02T13:19:38.490Z,19.35
2022-08-02T13:22:06.194Z,19.43
2022-08-02T13:24:39.597Z,19.44
2022-08-02T13:27:22.268Z,19.32
2022-08-02T13:29:50.625Z,19.28
2022-08-02T13:32:17.756Z,19.38
2022-08-02T13:34:44.510Z,19.36
2022-08-02T13:37:11.183Z,19.31
2022-08-02T13:39:38.031Z,19.42
2022-08-02T13:42:05.739Z,19.54
2022-08-02T13:44:33.333Z,19.59
2022-08-02T13:47:01.055Z,19.60
2022-08-02T13:49:51.212Z,19.53
2022-08-02T13:52:16.750Z,19.41
2022-08-02T13:54:43.608Z,19.42
2022-08-02T13:57:10.298Z,19.54
2022-08-02T13:59:55.955Z,19.60
2022-08-02T14:02:23.597Z,19.58
2022-08-02T14:04:50.232Z,19.67
2022-08-02T14:07:16.887Z,19.71
2022-08-02T14:09:43.818Z,19.74
2022-08-02T14:12:11.220Z,19.76
2022-08-02T14:14:38.560Z,19.85
2022-08-02T14:17:05.688Z,19.88
2022-08-02T14:19:32.461Z,19.84
2022-08-02T14:22:10.927Z,19.79
2022-08-02T14:24:39.737Z,19.75
2022-08-02T14:27:06.534Z,19.81
2022-08-02T14:29:33.444Z,19.90
2022-08-02T14:32:00.191Z,19.87
2022-08-02T14:34:27.600Z,19.88
2022-08-02T14:36:58.627Z,19.89
2022-08-02T14:39:25.327Z,19.96
2022-08-02T14:41:59.604Z,20.04
2022-08-02T14:44:28.765Z,19.98
2022-08-02T14:46:56.087Z,19.95
2022-08-02T14:49:24.849Z,19.92
2022-08-02T14:51:56.294Z,19.93
2022-08-02T14:54:30.508Z,19.92
2022-08-02T14:57:03.306Z,20.02
2022-08-02T14:59:31.063Z,20.11
2022-08-02T15:01:58.955Z,20.15
2022-08-02T15:04:26.299Z,20.15
2022-08-02T15:06:53.695Z,20.03
2022-08-02T15:09:21.006Z,19.94
2022-08-02T15:11:49.405Z,19.96
2022-08-02T15:14:20.345Z,20.07
2022-08-02T15:16:59.414Z,20.06
2022-08-02T15:19:56.066Z,20.11
2022-08-02T15:22:19.702Z,20.14
2022-08-02T15:24:47.816Z,20.10
2022-08-02T15:27:15.218Z,20.06
2022-08-02T15:29:43.721Z,20.08
2022-08-02T15:32:11.882Z,20.07
2022-08-02T15:34:39.409Z,19.98
2022-08-02T15:37:06.385Z,19.98
2022-08-02T15:39:33.025Z,20.08
2022-08-02T15:41:59.791Z,20.13
2022-08-02T15:44:26.536Z,20.07
2022-08-02T15:46:54.760Z,20.03
2022-08-02T15:49:24.090Z,20.01
2022-08-02T15:51:52.756Z,19.98
2022-08-02T15:54:20.013Z,20.03
2022-08-02T15:56:48.796Z,20.09
2022-08-02T15:59:16.488Z,19.97
2022-08-02T16:01:47.142Z,20.00
2022-08-02T16:04:15.257Z,20.13
2022-08-02T16:06:41.908Z,20.15
2022-08-02T16:09:09.252Z,20.13
2022-08-02T16:11:35.942Z,20.10
2022-08-02T16:14:02.575Z,20.08
2022-08-02T16:16:32.404Z,20.02
2022-08-02T16:19:47.809Z,20.03
2022-08-02T16:21:48.362Z,19.96
2022-08-02T16:24:17.138Z,19.95
2022-08-02T16:26:44.183Z,19.88
2022-08-02T16:29:10.871Z,19.81
2022-08-02T16:31:42.285Z,19.76
2022-08-02T16:34:09.836Z,19.73
2022-08-02T16:36:36.764Z,19.62
2022-08-02T16:39:04.512Z,19.59
2022-08-02T16:41:50.742Z,19.52
2022-08-02T16:44:18.059Z,19.30
2022-08-02T16:46:54.852Z,19.30
2022-08-02T16:50:05.092Z,19.30
2022-08-02T16:52:09.430Z,19.10
2022-08-02T16:54:37.453Z,19.03
2022-08-02T16:57:05.097Z,19.01
2022-08-02T16:59:42.636Z,18.93
2022-08-02T17:02:15.293Z,18.92
2022-08-02T17:04:46.676Z,18.85
2022-08-02T17:08:06.363Z,18.88
2022-08-02T17:10:03.804Z,18.74
2022-08-02T17:12:33.932Z,18.65
2022-08-02T17:15:26.982Z,18.64
2022-08-02T17:17:47.787Z,18.57
2022-08-02T17:20:15.245Z,18.55
2022-08-02T17:22:44.182Z,18.50
2022-08-02T17:25:13.573Z,18.43
2022-08-02T17:27:42.218Z,18.43
2022-08-02T17:30:10.975Z,18.40
2022-08-02T17:32:38.023Z,18.36
2022-08-02T17:35:06.749Z,18.29
2022-08-02T17:37:41.583Z,18.30
2022-08-02T17:40:09.871Z,18.17
2022-08-02T17:42:36.664Z,18.10
2022-08-02T17:45:16.660Z,18.04
2022-08-02T17:48:04.346Z,18.05
2022-08-02T17:50:32.345Z,17.97
2022-08-02T17:52:59.503Z,17.89
2022-08-02T17:55:26.279Z,17.87
2022-08-02T17:57:58.185Z,17.85
2022-08-02T18:00:31.184Z,17.84
2022-08-02T18:02:58.048Z,17.80
2022-08-02T18:05:36.242Z,17.81
2022-08-02T18:08:07.507Z,17.74
2022-08-02T18:10:34.474Z,17.63
2022-08-02T18:13:03.250Z,17.52
2022-08-02T18:15:32.494Z,17.41
2022-08-02T18:18:00.432Z,17.40
2022-08-02T18:20:27.130Z,17.22
2022-08-02T18:22:55.800Z,17.19
2022-08-02T18:25:37.253Z,17.12
2022-08-02T18:28:12.502Z,16.96
2022-08-02T18:30:39.393Z,16.85
2022-08-02T18:33:58.268Z,16.74
2022-08-02T18:35:55.359Z,16.61
2022-08-02T18:38:23.173Z,16.48
2022-08-02T18:40:50.880Z,16.29
2022-08-02T18:43:18.715Z,16.16
2022-08-02T18:46:07.035Z,16.03
2022-08-02T18:48:37.520Z,15.92
2022-08-02T18:51:06.881Z,15.85
2022-08-02T18:53:41.840Z,15.77
2022-08-02T18:56:19.371Z,15.66
2022-08-02T18:58:48.078Z,15.58
2022-08-02T19:01:21.942Z,15.56
2022-08-02T19:04:01.950Z,15.52
2022-08-02T19:06:29.754Z,15.56
2022-08-02T19:09:05.838Z,15.53
2022-08-02T19:11:38.536Z,15.48
2022-08-02T19:14:08.295Z,15.45
2022-08-02T19:16:36.774Z,15.43
2022-08-02T19:19:05.763Z,15.43
2022-08-02T19:22:26.582Z,15.40
2022-08-02T19:24:19.273Z,15.37
2022-08-02T19:26:52.095Z,15.35
2022-08-02T19:29:25.102Z,15.32
2022-08-02T19:32:39.236Z,15.30
2022-08-02T19:34:53.937Z,15.27
2022-08-02T19:37:21.197Z,15.27
2022-08-02T19:39:48.804Z,15.27
2022-08-02T19:42:16.944Z,15.25
2022-08-02T19:44:45.821Z,15.19
2022-08-02T19:47:19.264Z,15.19
2022-08-02T19:49:48.671Z,15.17
2022-08-02T19:52:20.752Z,15.14
2022-08-02T19:54:56.083Z,15.14
2022-08-02T19:57:25.165Z,15.05
2022-08-02T19:59:54.004Z,15.07
2022-08-02T20:02:21.356Z,15.04
2022-08-02T20:04:50.047Z,15.03
2022-08-02T20:10:11.264Z,15.01
2022-08-02T20:12:41.746Z,15.01
2022-08-02T20:15:15.009Z,15.00
2022-08-02T20:17:47.263Z,14.99
2022-08-02T20:20:14.789Z,14.96
2022-08-02T20:23:00.151Z,14.93
2022-08-02T20:25:29.072Z,14.89
2022-08-02T20:27:55.962Z,14.83
2022-08-02T20:30:25.366Z,14.82
2022-08-02T20:32:58.853Z,14.83
2022-08-02T20:35:29.440Z,14.81
2022-08-02T20:38:02.086Z,14.81
2022-08-02T20:40:29.188Z,14.81
2022-08-02T20:42:56.407Z,14.85
2022-08-02T20:45:27.003Z,14.89
2022-08-02T20:47:55.048Z,14.83
2022-08-02T20:50:44.945Z,14.81
2022-08-02T20:53:23.857Z,14.79
2022-08-02T20:55:55.208Z,14.76
2022-08-02T20:58:26.459Z,14.77
2022-08-02T21:00:56.733Z,14.75
2022-08-02T21:03:23.499Z,14.77
2022-08-02T21:05:55.999Z,14.75
2022-08-02T21:08:23.370Z,14.74
2022-08-02T21:10:52.496Z,14.72
2022-08-02T21:13:26.694Z,14.67
2022-08-02T21:15:56.955Z,14.68
2022-08-02T21:18:36.596Z,14.69
2022-08-02T21:21:08.919Z,14.73
2022-08-02T21:23:36.816Z,14.74
2022-08-02T21:26:04.622Z,14.77
2022-08-02T21:28:43.682Z,14.73
2022-08-02T21:31:15.714Z,14.69
2022-08-02T21:33:57.001Z,14.73
2022-08-02T21:36:32.249Z,14.72
2022-08-02T21:39:04.904Z,14.60
2022-08-02T21:41:39.642Z,14.57
2022-08-02T21:44:15.882Z,14.59
2022-08-02T21:50:08.939Z,14.58
2022-08-02T21:52:25.883Z,14.52
2022-08-02T21:54:55.765Z,14.52
2022-08-02T21:57:23.289Z,14.48
2022-08-02T21:59:52.702Z,14.48
2022-08-02T22:02:30.835Z,14.50
2022-08-02T22:04:57.850Z,14.48
2022-08-02T22:07:26.452Z,14.50
2022-08-02T22:09:53.824Z,14.51
2022-08-02T22:12:26.579Z,14.54
2022-08-02T22:14:55.719Z,14.60
2022-08-02T22:17:50.446Z,14.59
2022-08-02T22:20:14.549Z,14.63
2022-08-02T22:22:42.352Z,14.59
2022-08-02T22:25:10.003Z,14.60
2022-08-02T22:28:35.209Z,14.58
2022-08-02T22:30:35.272Z,14.57
2022-08-02T22:33:20.622Z,14.60
2022-08-02T22:35:47.325Z,14.62
2022-08-02T22:38:18.421Z,14.64
2022-08-02T22:40:49.931Z,14.63
2022-08-02T22:43:23.039Z,14.69
2022-08-02T22:45:51.092Z,14.67
2022-08-02T22:48:18.196Z,14.64
2022-08-02T22:50:45.808Z,14.65
2022-08-02T22:53:12.719Z,14.65
2022-08-02T22:55:45.049Z,14.66
2022-08-02T22:58:11.844Z,14.65
2022-08-02T22:58:54.483Z,15.03
2022-08-02T23:00:39.929Z,14.71
2022-08-02T23:03:07.003Z,14.72
2022-08-02T23:05:34.026Z,14.76
2022-08-02T23:08:00.931Z,14.77
2022-08-02T23:10:27.968Z,14.77
2022-08-02T23:12:58.665Z,14.68
2022-08-02T23:15:26.572Z,14.70
2022-08-02T23:18:12.301Z,14.58
2022-08-02T23:20:38.965Z,14.33
2022-08-02T23:23:11.807Z,14.46
2022-08-02T23:25:38.683Z,14.51
2022-08-02T23:28:05.355Z,14.56
2022-08-02T23:30:31.996Z,14.61
2022-08-02T23:32:58.600Z,14.63
2022-08-02T23:35:25.388Z,14.63
2022-08-02T23:38:00.456Z,14.70
2022-08-02T23:40:40.443Z,14.72
2022-08-02T23:43:13.352Z,14.72
2022-08-02T23:45:41.501Z,14.68
2022-08-02T23:48:08.108Z,14.72
2022-08-02T23:50:34.904Z,14.54
2022-08-02T23:53:01.500Z,14.45
2022-08-02T23:55:28.176Z,14.58
2022-08-02T23:57:54.889Z,14.66
